PWSweather.com
Personal Weather Stations
Station Observations
KKSGOODL5
11 Miles Nne, Goodland, KS 67735

11 Miles NneGoodland, KS 67735

Lat: 39.49, Lon: -101.63

Elevation: 3450

Station Type: Davis Instruments Vantage Pro2

http://weather.ccrouch.com/

Latest ConditionsUpdated 3:05:06 PM MST Saturday, Feb 23, 2019
Currently Today's Max Today's Min Today's Average
Temperature 29.3°F-1.5°C 30.4°F-0.9°C 23.5°F-4.7°C 27.2°F-2.7°C
Dew Point 23.0°F-5.0°C 29.4°F-1.4°C 22.0°F-5.6°C 25.7°F-3.5°C
Winds 25.0 mph NNW40.2 kmh NNW 33.0 mph -53.1 kmh - - 17.8 mph 28.6 kmh
Wind Gusts 33.0 mph53.1 kmh 36.0 mph57.9 kmh - -
Humidity 77% 96% 77% 94%
Pressure 29.92 in1013.2 mb 29.92 in1013.2 mb 29.77 in1008.1 mb -
Hour Temp Dew Point Humidity Winds Wind Gusts Pressure Precip Precip Rate Daily Precip Total
03:05 PM 29.3°F-1.5°C 23.0°F-5.0°C 77% 25.0 mph NNW40.2 kmh NNW 33.0 mph53.1 kmh 29.92 in1013.2 mb 0.00 in0.0 mm 0.00 in0.0 mm 0.00 in0.0 mm
03:00 PM 29.2°F-1.6°C 23.2°F-4.9°C 78% 21.0 mph NNW33.8 kmh NNW 22.0 mph35.4 kmh 29.92 in1013.2 mb 0.00 in0.0 mm 0.00 in0.0 mm 0.00 in0.0 mm
02:55 PM 29.2°F-1.6°C 23.5°F-4.7°C 79% 24.0 mph NW38.6 kmh NW 33.0 mph53.1 kmh 29.92 in1013.2 mb 0.00 in0.0 mm 0.00 in0.0 mm 0.00 in0.0 mm
02:50 PM 29.0°F-1.7°C 23.6°F-4.7°C 80% 25.0 mph NW40.2 kmh NW 33.0 mph53.1 kmh 29.91 in1012.9 mb 0.00 in0.0 mm 0.00 in0.0 mm 0.00 in0.0 mm
02:45 PM 28.9°F-1.7°C 23.5°F-4.7°C 80% 27.0 mph NNW43.5 kmh NNW 27.0 mph43.5 kmh 29.91 in1012.9 mb 0.00 in0.0 mm 0.00 in0.0 mm 0.00 in0.0 mm
02:40 PM 28.8°F-1.8°C 23.7°F-4.6°C 81% 28.0 mph NW45.1 kmh NW 33.0 mph53.1 kmh 29.91 in1012.9 mb 0.00 in0.0 mm 0.00 in0.0 mm 0.00 in0.0 mm
02:35 PM 28.8°F-1.8°C 24.0°F-4.4°C 82% 30.0 mph NW48.3 kmh NW 33.0 mph53.1 kmh 29.91 in1012.9 mb 0.00 in0.0 mm 0.00 in0.0 mm 0.00 in0.0 mm
02:30 PM 28.8°F-1.8°C 24.3°F-4.3°C 83% 26.0 mph NNW41.8 kmh NNW 28.0 mph45.1 kmh 29.91 in1012.9 mb 0.00 in0.0 mm 0.00 in0.0 mm 0.00 in0.0 mm
02:25 PM 28.9°F-1.7°C 25.0°F-3.9°C 85% 26.0 mph NNW41.8 kmh NNW 32.0 mph51.5 kmh 29.90 in1012.5 mb 0.00 in0.0 mm 0.00 in0.0 mm 0.00 in0.0 mm
02:20 PM 28.7°F-1.8°C 25.1°F-3.8°C 86% 24.0 mph NNW38.6 kmh NNW 31.0 mph49.9 kmh 29.90 in1012.5 mb 0.00 in0.0 mm 0.00 in0.0 mm 0.00 in0.0 mm
02:15 PM 28.6°F-1.9°C 25.2°F-3.8°C 87% 21.0 mph NNW33.8 kmh NNW 24.0 mph38.6 kmh 29.89 in1012.2 mb 0.00 in0.0 mm 0.00 in0.0 mm 0.00 in0.0 mm
02:10 PM 28.4°F-2.0°C 25.0°F-3.9°C 87% 27.0 mph NNW43.5 kmh NNW 30.0 mph48.3 kmh 29.89 in1012.2 mb 0.00 in0.0 mm 0.00 in0.0 mm 0.00 in0.0 mm
02:05 PM 28.5°F-1.9°C 25.4°F-3.7°C 88% 18.0 mph N29.0 kmh N 26.0 mph41.8 kmh 29.89 in1012.2 mb 0.00 in0.0 mm 0.00 in0.0 mm 0.00 in0.0 mm
02:00 PM 28.3°F-2.1°C 25.2°F-3.8°C 88% 18.0 mph NNW29.0 kmh NNW 23.0 mph37.0 kmh 29.88 in1011.9 mb 0.00 in0.0 mm 0.00 in0.0 mm 0.00 in0.0 mm
01:55 PM 27.9°F-2.3°C 24.8°F-4.0°C 88% 21.0 mph NW33.8 kmh NW 33.0 mph53.1 kmh 29.88 in1011.9 mb 0.00 in0.0 mm 0.00 in0.0 mm 0.00 in0.0 mm
01:50 PM 27.6°F-2.4°C 24.8°F-4.0°C 89% 23.0 mph NNW37.0 kmh NNW 32.0 mph51.5 kmh 29.88 in1011.9 mb 0.00 in0.0 mm 0.00 in0.0 mm 0.00 in0.0 mm
01:45 PM 27.5°F-2.5°C 24.7°F-4.1°C 89% 21.0 mph N33.8 kmh N 22.0 mph35.4 kmh 29.88 in1011.9 mb 0.00 in0.0 mm 0.00 in0.0 mm 0.00 in0.0 mm
01:40 PM 27.3°F-2.6°C 24.5°F-4.2°C 89% 30.0 mph NNW48.3 kmh NNW 36.0 mph57.9 kmh 29.87 in1011.5 mb 0.00 in0.0 mm 0.00 in0.0 mm 0.00 in0.0 mm
01:35 PM 27.2°F-2.7°C 24.7°F-4.1°C 90% 21.0 mph NNW33.8 kmh NNW 33.0 mph53.1 kmh 29.87 in1011.5 mb 0.00 in0.0 mm 0.00 in0.0 mm 0.00 in0.0 mm
01:30 PM 27.2°F-2.7°C 24.7°F-4.1°C 90% 26.0 mph NNW41.8 kmh NNW 26.0 mph41.8 kmh 29.87 in1011.5 mb 0.00 in0.0 mm 0.00 in0.0 mm 0.00 in0.0 mm
01:25 PM 27.1°F-2.7°C 24.6°F-4.1°C 90% 31.0 mph NNW49.9 kmh NNW 33.0 mph53.1 kmh 29.87 in1011.5 mb 0.00 in0.0 mm 0.00 in0.0 mm 0.00 in0.0 mm
01:20 PM 27.0°F-2.8°C 24.5°F-4.2°C 90% 25.0 mph NW40.2 kmh NW 33.0 mph53.1 kmh 29.87 in1011.5 mb 0.00 in0.0 mm 0.00 in0.0 mm 0.00 in0.0 mm
01:15 PM 26.9°F-2.8°C 24.6°F-4.1°C 91% 29.0 mph NNW46.7 kmh NNW 29.0 mph46.7 kmh 29.87 in1011.5 mb 0.00 in0.0 mm 0.00 in0.0 mm 0.00 in0.0 mm
01:10 PM 26.7°F-2.9°C 24.4°F-4.2°C 91% 24.0 mph NW38.6 kmh NW 33.0 mph53.1 kmh 29.87 in1011.5 mb 0.00 in0.0 mm 0.00 in0.0 mm 0.00 in0.0 mm
01:05 PM 27.0°F-2.8°C 24.7°F-4.1°C 91% 22.0 mph NW35.4 kmh NW 32.0 mph51.5 kmh 29.87 in1011.5 mb 0.00 in0.0 mm 0.00 in0.0 mm 0.00 in0.0 mm
01:00 PM 26.9°F-2.8°C 24.6°F-4.1°C 91% 26.0 mph NNW41.8 kmh NNW 26.0 mph41.8 kmh 29.86 in1011.2 mb 0.00 in0.0 mm 0.00 in0.0 mm 0.00 in0.0 mm
12:55 PM 26.8°F-2.9°C 24.8°F-4.0°C 92% 21.0 mph NNW33.8 kmh NNW 32.0 mph51.5 kmh 29.86 in1011.2 mb 0.00 in0.0 mm 0.00 in0.0 mm 0.00 in0.0 mm
12:50 PM 26.6°F-3.0°C 24.6°F-4.1°C 92% 27.0 mph NNW43.5 kmh NNW 32.0 mph51.5 kmh 29.86 in1011.2 mb 0.00 in0.0 mm 0.00 in0.0 mm 0.00 in0.0 mm
12:45 PM 26.6°F-3.0°C 24.6°F-4.1°C 92% 28.0 mph NW45.1 kmh NW 30.0 mph48.3 kmh 29.86 in1011.2 mb 0.00 in0.0 mm 0.00 in0.0 mm 0.00 in0.0 mm
12:40 PM 26.2°F-3.2°C 24.2°F-4.3°C 92% 22.0 mph NW35.4 kmh NW 32.0 mph51.5 kmh 29.86 in1011.2 mb 0.00 in0.0 mm 0.00 in0.0 mm 0.00 in0.0 mm
12:35 PM 26.0°F-3.3°C 24.3°F-4.3°C 93% 27.0 mph NNW43.5 kmh NNW 32.0 mph51.5 kmh 29.86 in1011.2 mb 0.00 in0.0 mm 0.00 in0.0 mm 0.00 in0.0 mm
12:30 PM 25.8°F-3.4°C 23.8°F-4.6°C 92% 28.0 mph NNW45.1 kmh NNW 32.0 mph51.5 kmh 29.86 in1011.2 mb 0.00 in0.0 mm 0.00 in0.0 mm 0.00 in0.0 mm
12:25 PM 25.8°F-3.4°C 24.1°F-4.4°C 93% 22.0 mph NNW35.4 kmh NNW 33.0 mph53.1 kmh 29.87 in1011.5 mb 0.00 in0.0 mm 0.00 in0.0 mm 0.00 in0.0 mm
12:20 PM 25.9°F-3.4°C 24.4°F-4.2°C 94% 19.0 mph NW30.6 kmh NW 28.0 mph45.1 kmh 29.87 in1011.5 mb 0.00 in0.0 mm 0.00 in0.0 mm 0.00 in0.0 mm
12:15 PM 26.0°F-3.3°C 24.5°F-4.2°C 94% 16.0 mph NW25.7 kmh NW 18.0 mph29.0 kmh 29.87 in1011.5 mb 0.00 in0.0 mm 0.00 in0.0 mm 0.00 in0.0 mm
12:10 PM 26.0°F-3.3°C 24.5°F-4.2°C 94% 22.0 mph NW35.4 kmh NW 27.0 mph43.5 kmh 29.86 in1011.2 mb 0.00 in0.0 mm 0.00 in0.0 mm 0.00 in0.0 mm
12:05 PM 25.8°F-3.4°C 24.3°F-4.3°C 94% 17.0 mph NNW27.4 kmh NNW 26.0 mph41.8 kmh 29.86 in1011.2 mb 0.00 in0.0 mm 0.00 in0.0 mm 0.00 in0.0 mm
12:00 PM 25.3°F-3.7°C 23.8°F-4.6°C 94% 23.0 mph NW37.0 kmh NW 23.0 mph37.0 kmh 29.86 in1011.2 mb 0.00 in0.0 mm 0.00 in0.0 mm 0.00 in0.0 mm
11:55 AM 25.0°F-3.9°C 23.5°F-4.7°C 94% 24.0 mph NNW38.6 kmh NNW 30.0 mph48.3 kmh 29.86 in1011.2 mb 0.00 in0.0 mm 0.00 in0.0 mm 0.00 in0.0 mm
11:50 AM 25.0°F-3.9°C 23.5°F-4.7°C 94% 24.0 mph NNW38.6 kmh NNW 30.0 mph48.3 kmh 29.86 in1011.2 mb 0.00 in0.0 mm 0.00 in0.0 mm 0.00 in0.0 mm
11:45 AM 25.0°F-3.9°C 23.5°F-4.7°C 94% 22.0 mph NNW35.4 kmh NNW 24.0 mph38.6 kmh 29.86 in1011.2 mb 0.00 in0.0 mm 0.00 in0.0 mm 0.00 in0.0 mm
11:40 AM 25.2°F-3.8°C 23.7°F-4.6°C 94% 20.0 mph NNW32.2 kmh NNW 31.0 mph49.9 kmh 29.86 in1011.2 mb 0.00 in0.0 mm 0.00 in0.0 mm 0.00 in0.0 mm
11:35 AM 25.3°F-3.7°C 24.1°F-4.4°C 95% 18.0 mph NNW29.0 kmh NNW 26.0 mph41.8 kmh 29.87 in1011.5 mb 0.00 in0.0 mm 0.00 in0.0 mm 0.00 in0.0 mm
11:30 AM 25.1°F-3.8°C 23.9°F-4.5°C 95% 20.0 mph NNW32.2 kmh NNW 22.0 mph35.4 kmh 29.86 in1011.2 mb 0.00 in0.0 mm 0.00 in0.0 mm 0.00 in0.0 mm
11:25 AM 25.2°F-3.8°C 24.0°F-4.4°C 95% 24.0 mph NNW38.6 kmh NNW 30.0 mph48.3 kmh 29.87 in1011.5 mb 0.00 in0.0 mm 0.00 in0.0 mm 0.00 in0.0 mm
11:20 AM 25.1°F-3.8°C 23.9°F-4.5°C 95% 23.0 mph NNW37.0 kmh NNW 30.0 mph48.3 kmh 29.86 in1011.2 mb 0.00 in0.0 mm 0.00 in0.0 mm 0.00 in0.0 mm
11:15 AM 24.9°F-3.9°C 23.7°F-4.6°C 95% 22.0 mph NW35.4 kmh NW 24.0 mph38.6 kmh 29.86 in1011.2 mb 0.00 in0.0 mm 0.00 in0.0 mm 0.00 in0.0 mm
11:10 AM 24.6°F-4.1°C 23.4°F-4.8°C 95% 22.0 mph NNW35.4 kmh NNW 31.0 mph49.9 kmh 29.86 in1011.2 mb 0.00 in0.0 mm 0.00 in0.0 mm 0.00 in0.0 mm
11:05 AM 24.6°F-4.1°C 23.1°F-4.9°C 94% 18.0 mph NNW29.0 kmh NNW 31.0 mph49.9 kmh 29.86 in1011.2 mb 0.00 in0.0 mm 0.00 in0.0 mm 0.00 in0.0 mm
11:00 AM 24.7°F-4.1°C 23.5°F-4.7°C 95% 22.0 mph NNW35.4 kmh NNW 22.0 mph35.4 kmh 29.86 in1011.2 mb 0.00 in0.0 mm 0.00 in0.0 mm 0.00 in0.0 mm
10:55 AM 24.7°F-4.1°C 23.5°F-4.7°C 95% 18.0 mph NNW29.0 kmh NNW 30.0 mph48.3 kmh 29.85 in1010.8 mb 0.00 in0.0 mm 0.00 in0.0 mm 0.00 in0.0 mm
10:50 AM 24.8°F-4.0°C 23.6°F-4.7°C 95% 15.0 mph NNW24.1 kmh NNW 28.0 mph45.1 kmh 29.85 in1010.8 mb 0.00 in0.0 mm 0.00 in0.0 mm 0.00 in0.0 mm
10:45 AM 24.5°F-4.2°C 23.0°F-5.0°C 94% 19.0 mph N30.6 kmh N 25.0 mph40.2 kmh 29.85 in1010.8 mb 0.00 in0.0 mm 0.00 in0.0 mm 0.00 in0.0 mm
10:40 AM 24.4°F-4.2°C 23.2°F-4.9°C 95% 21.0 mph NNW33.8 kmh NNW 28.0 mph45.1 kmh 29.85 in1010.8 mb 0.00 in0.0 mm 0.00 in0.0 mm 0.00 in0.0 mm
10:35 AM 24.4°F-4.2°C 23.2°F-4.9°C 95% 20.0 mph N32.2 kmh N 28.0 mph45.1 kmh 29.85 in1010.8 mb 0.00 in0.0 mm 0.00 in0.0 mm 0.00 in0.0 mm
10:30 AM 24.3°F-4.3°C 23.1°F-4.9°C 95% 18.0 mph N29.0 kmh N 19.0 mph30.6 kmh 29.84 in1010.5 mb 0.00 in0.0 mm 0.00 in0.0 mm 0.00 in0.0 mm
10:25 AM 24.1°F-4.4°C 22.9°F-5.1°C 95% 22.0 mph N35.4 kmh N 28.0 mph45.1 kmh 29.84 in1010.5 mb 0.00 in0.0 mm 0.00 in0.0 mm 0.00 in0.0 mm
10:20 AM 23.9°F-4.5°C 22.7°F-5.2°C 95% 20.0 mph N32.2 kmh N 28.0 mph45.1 kmh 29.84 in1010.5 mb 0.00 in0.0 mm 0.00 in0.0 mm 0.00 in0.0 mm
10:15 AM 23.8°F-4.6°C 22.6°F-5.2°C 95% 20.0 mph NNW32.2 kmh NNW 20.0 mph32.2 kmh 29.84 in1010.5 mb 0.00 in0.0 mm 0.00 in0.0 mm 0.00 in0.0 mm
10:10 AM 23.5°F-4.7°C 22.3°F-5.4°C 95% 20.0 mph N32.2 kmh N 33.0 mph53.1 kmh 29.83 in1010.2 mb 0.00 in0.0 mm 0.00 in0.0 mm 0.00 in0.0 mm
10:05 AM 23.5°F-4.7°C 22.0°F-5.6°C 94% 28.0 mph NNW45.1 kmh NNW 29.0 mph46.7 kmh 29.83 in1010.2 mb 0.00 in0.0 mm 0.00 in0.0 mm 0.00 in0.0 mm
10:00 AM 23.5°F-4.7°C 22.0°F-5.6°C 94% 22.0 mph N35.4 kmh N 24.0 mph38.6 kmh 29.82 in1009.8 mb 0.00 in0.0 mm 0.00 in0.0 mm 0.00 in0.0 mm
09:55 AM 23.7°F-4.6°C 22.2°F-5.4°C 94% 27.0 mph NNW43.5 kmh NNW 30.0 mph48.3 kmh 29.82 in1009.8 mb 0.00 in0.0 mm 0.00 in0.0 mm 0.00 in0.0 mm
09:50 AM 23.8°F-4.6°C 22.3°F-5.4°C 94% 24.0 mph NNW38.6 kmh NNW 29.0 mph46.7 kmh 29.81 in1009.5 mb 0.00 in0.0 mm 0.00 in0.0 mm 0.00 in0.0 mm
09:45 AM 23.9°F-4.5°C 22.4°F-5.3°C 94% 23.0 mph N37.0 kmh N 27.0 mph43.5 kmh 29.80 in1009.1 mb 0.00 in0.0 mm 0.00 in0.0 mm 0.00 in0.0 mm
09:40 AM 24.0°F-4.4°C 22.8°F-5.1°C 95% 26.0 mph N41.8 kmh N 33.0 mph53.1 kmh 29.81 in1009.5 mb 0.00 in0.0 mm 0.00 in0.0 mm 0.00 in0.0 mm
09:35 AM 24.1°F-4.4°C 22.9°F-5.1°C 95% 20.0 mph NNW32.2 kmh NNW 29.0 mph46.7 kmh 29.81 in1009.5 mb 0.00 in0.0 mm 0.00 in0.0 mm 0.00 in0.0 mm
09:30 AM 24.1°F-4.4°C 22.9°F-5.1°C 95% 27.0 mph NNW43.5 kmh NNW 27.0 mph43.5 kmh 29.80 in1009.1 mb 0.00 in0.0 mm 0.00 in0.0 mm 0.00 in0.0 mm
09:25 AM 24.1°F-4.4°C 22.9°F-5.1°C 95% 20.0 mph N32.2 kmh N 33.0 mph53.1 kmh 29.80 in1009.1 mb 0.00 in0.0 mm 0.00 in0.0 mm 0.00 in0.0 mm
09:20 AM 24.0°F-4.4°C 22.8°F-5.1°C 95% 22.0 mph N35.4 kmh N 32.0 mph51.5 kmh 29.80 in1009.1 mb 0.00 in0.0 mm 0.00 in0.0 mm 0.00 in0.0 mm
09:15 AM 24.0°F-4.4°C 22.8°F-5.1°C 95% 26.0 mph N41.8 kmh N 26.0 mph41.8 kmh 29.80 in1009.1 mb 0.00 in0.0 mm 0.00 in0.0 mm 0.00 in0.0 mm
09:10 AM 24.1°F-4.4°C 22.9°F-5.1°C 95% 25.0 mph N40.2 kmh N 33.0 mph53.1 kmh 29.80 in1009.1 mb 0.00 in0.0 mm 0.00 in0.0 mm 0.00 in0.0 mm
09:05 AM 24.1°F-4.4°C 22.9°F-5.1°C 95% 29.0 mph NNW46.7 kmh NNW 33.0 mph53.1 kmh 29.80 in1009.1 mb 0.00 in0.0 mm 0.00 in0.0 mm 0.00 in0.0 mm
09:00 AM 24.1°F-4.4°C 22.9°F-5.1°C 95% 31.0 mph N49.9 kmh N 31.0 mph49.9 kmh 29.80 in1009.1 mb 0.00 in0.0 mm 0.00 in0.0 mm 0.00 in0.0 mm
08:55 AM 24.2°F-4.3°C 23.0°F-5.0°C 95% 26.0 mph N41.8 kmh N 33.0 mph53.1 kmh 29.80 in1009.1 mb 0.00 in0.0 mm 0.00 in0.0 mm 0.00 in0.0 mm
08:50 AM 24.3°F-4.3°C 23.1°F-4.9°C 95% 28.0 mph N45.1 kmh N 30.0 mph48.3 kmh 29.80 in1009.1 mb 0.00 in0.0 mm 0.00 in0.0 mm 0.00 in0.0 mm
08:45 AM 24.2°F-4.3°C 23.0°F-5.0°C 95% 26.0 mph NNW41.8 kmh NNW 26.0 mph41.8 kmh 29.80 in1009.1 mb 0.00 in0.0 mm 0.00 in0.0 mm 0.00 in0.0 mm
08:40 AM 24.3°F-4.3°C 23.1°F-4.9°C 95% 28.0 mph N45.1 kmh N 33.0 mph53.1 kmh 29.80 in1009.1 mb 0.00 in0.0 mm 0.00 in0.0 mm 0.00 in0.0 mm
08:35 AM 24.4°F-4.2°C 23.2°F-4.9°C 95% 19.0 mph NNW30.6 kmh NNW 33.0 mph53.1 kmh 29.80 in1009.1 mb 0.00 in0.0 mm 0.00 in0.0 mm 0.00 in0.0 mm
08:30 AM 24.3°F-4.3°C 23.1°F-4.9°C 95% 23.0 mph N37.0 kmh N 28.0 mph45.1 kmh 29.80 in1009.1 mb 0.00 in0.0 mm 0.00 in0.0 mm 0.00 in0.0 mm
08:25 AM 24.4°F-4.2°C 23.2°F-4.9°C 95% 24.0 mph NNW38.6 kmh NNW 32.0 mph51.5 kmh 29.80 in1009.1 mb 0.00 in0.0 mm 0.00 in0.0 mm 0.00 in0.0 mm
08:20 AM 24.4°F-4.2°C 23.2°F-4.9°C 95% 28.0 mph N45.1 kmh N 31.0 mph49.9 kmh 29.80 in1009.1 mb 0.00 in0.0 mm 0.00 in0.0 mm 0.00 in0.0 mm
08:15 AM 24.4°F-4.2°C 23.2°F-4.9°C 95% 26.0 mph NNW41.8 kmh NNW 26.0 mph41.8 kmh 29.80 in1009.1 mb 0.00 in0.0 mm 0.00 in0.0 mm 0.00 in0.0 mm
08:10 AM 24.4°F-4.2°C 23.2°F-4.9°C 95% 29.0 mph N46.7 kmh N 34.0 mph54.7 kmh 29.79 in1008.8 mb 0.00 in0.0 mm 0.00 in0.0 mm 0.00 in0.0 mm
08:05 AM 24.4°F-4.2°C 23.2°F-4.9°C 95% 23.0 mph N37.0 kmh N 34.0 mph54.7 kmh 29.79 in1008.8 mb 0.00 in0.0 mm 0.00 in0.0 mm 0.00 in0.0 mm
08:00 AM 24.5°F-4.2°C 23.3°F-4.8°C 95% 33.0 mph N53.1 kmh N 33.0 mph53.1 kmh 29.79 in1008.8 mb 0.00 in0.0 mm 0.00 in0.0 mm 0.00 in0.0 mm
07:55 AM 24.8°F-4.0°C 23.6°F-4.7°C 95% 25.0 mph NNW40.2 kmh NNW 33.0 mph53.1 kmh 29.79 in1008.8 mb 0.00 in0.0 mm 0.00 in0.0 mm 0.00 in0.0 mm
07:50 AM 25.1°F-3.8°C 23.9°F-4.5°C 95% 25.0 mph N40.2 kmh N 33.0 mph53.1 kmh 29.79 in1008.8 mb 0.00 in0.0 mm 0.00 in0.0 mm 0.00 in0.0 mm
07:45 AM 25.3°F-3.7°C 24.1°F-4.4°C 95% 19.0 mph NNW30.6 kmh NNW 19.0 mph30.6 kmh 29.79 in1008.8 mb 0.00 in0.0 mm 0.00 in0.0 mm 0.00 in0.0 mm
07:40 AM 25.3°F-3.7°C 24.1°F-4.4°C 95% 23.0 mph NNW37.0 kmh NNW 31.0 mph49.9 kmh 29.79 in1008.8 mb 0.00 in0.0 mm 0.00 in0.0 mm 0.00 in0.0 mm
07:35 AM 25.4°F-3.7°C 24.2°F-4.3°C 95% 20.0 mph N32.2 kmh N 31.0 mph49.9 kmh 29.78 in1008.5 mb 0.00 in0.0 mm 0.00 in0.0 mm 0.00 in0.0 mm
07:30 AM 25.4°F-3.7°C 24.2°F-4.3°C 95% 23.0 mph N37.0 kmh N 23.0 mph37.0 kmh 29.78 in1008.5 mb 0.00 in0.0 mm 0.00 in0.0 mm 0.00 in0.0 mm
07:25 AM 25.6°F-3.6°C 24.4°F-4.2°C 95% 30.0 mph NNW48.3 kmh NNW 32.0 mph51.5 kmh 29.78 in1008.5 mb 0.00 in0.0 mm 0.00 in0.0 mm 0.00 in0.0 mm
07:20 AM 25.7°F-3.5°C 24.5°F-4.2°C 95% 25.0 mph N40.2 kmh N 32.0 mph51.5 kmh 29.78 in1008.5 mb 0.00 in0.0 mm 0.00 in0.0 mm 0.00 in0.0 mm
07:15 AM 25.7°F-3.5°C 24.5°F-4.2°C 95% 23.0 mph N37.0 kmh N 27.0 mph43.5 kmh 29.78 in1008.5 mb 0.00 in0.0 mm 0.00 in0.0 mm 0.00 in0.0 mm
07:10 AM 26.0°F-3.3°C 24.8°F-4.0°C 95% 19.0 mph N30.6 kmh N 30.0 mph48.3 kmh 29.78 in1008.5 mb 0.00 in0.0 mm 0.00 in0.0 mm 0.00 in0.0 mm
07:05 AM 26.2°F-3.2°C 25.0°F-3.9°C 95% 18.0 mph N29.0 kmh N 25.0 mph40.2 kmh 29.78 in1008.5 mb 0.00 in0.0 mm 0.00 in0.0 mm 0.00 in0.0 mm
07:00 AM 26.4°F-3.1°C 25.2°F-3.8°C 95% 18.0 mph N29.0 kmh N 20.0 mph32.2 kmh 29.78 in1008.5 mb 0.00 in0.0 mm 0.00 in0.0 mm 0.00 in0.0 mm
06:55 AM 26.5°F-3.1°C 25.3°F-3.7°C 95% 21.0 mph N33.8 kmh N 25.0 mph40.2 kmh 29.78 in1008.5 mb 0.00 in0.0 mm 0.00 in0.0 mm 0.00 in0.0 mm
06:50 AM 26.6°F-3.0°C 25.4°F-3.7°C 95% 24.0 mph N38.6 kmh N 25.0 mph40.2 kmh 29.78 in1008.5 mb 0.00 in0.0 mm 0.00 in0.0 mm 0.00 in0.0 mm
06:45 AM 26.7°F-2.9°C 25.5°F-3.6°C 95% 20.0 mph N32.2 kmh N 20.0 mph32.2 kmh 29.78 in1008.5 mb 0.00 in0.0 mm 0.00 in0.0 mm 0.00 in0.0 mm
06:40 AM 26.8°F-2.9°C 25.8°F-3.4°C 96% 13.0 mph N20.9 kmh N 25.0 mph40.2 kmh 29.78 in1008.5 mb 0.00 in0.0 mm 0.00 in0.0 mm 0.00 in0.0 mm
06:35 AM 27.0°F-2.8°C 26.0°F-3.3°C 96% 22.0 mph N35.4 kmh N 24.0 mph38.6 kmh 29.79 in1008.8 mb 0.00 in0.0 mm 0.00 in0.0 mm 0.00 in0.0 mm
06:30 AM 27.1°F-2.7°C 26.1°F-3.3°C 96% 18.0 mph N29.0 kmh N 20.0 mph32.2 kmh 29.78 in1008.5 mb 0.00 in0.0 mm 0.00 in0.0 mm 0.00 in0.0 mm
06:25 AM 27.3°F-2.6°C 26.3°F-3.2°C 96% 17.0 mph N27.4 kmh N 25.0 mph40.2 kmh 29.78 in1008.5 mb 0.00 in0.0 mm 0.00 in0.0 mm 0.00 in0.0 mm
06:20 AM 27.3°F-2.6°C 26.3°F-3.2°C 96% 13.0 mph NNE20.9 kmh NNE 19.0 mph30.6 kmh 29.78 in1008.5 mb 0.00 in0.0 mm 0.00 in0.0 mm 0.00 in0.0 mm
06:15 AM 27.3°F-2.6°C 26.3°F-3.2°C 96% 17.0 mph NNE27.4 kmh NNE 18.0 mph29.0 kmh 29.78 in1008.5 mb 0.00 in0.0 mm 0.00 in0.0 mm 0.00 in0.0 mm
06:10 AM 27.3°F-2.6°C 26.3°F-3.2°C 96% 15.0 mph NNE24.1 kmh NNE 21.0 mph33.8 kmh 29.78 in1008.5 mb 0.00 in0.0 mm 0.00 in0.0 mm 0.00 in0.0 mm
06:05 AM 27.4°F-2.6°C 26.4°F-3.1°C 96% 17.0 mph N27.4 kmh N 19.0 mph30.6 kmh 29.78 in1008.5 mb 0.00 in0.0 mm 0.00 in0.0 mm 0.00 in0.0 mm
06:00 AM 27.4°F-2.6°C 26.4°F-3.1°C 96% 19.0 mph NE30.6 kmh NE 19.0 mph30.6 kmh 29.79 in1008.8 mb 0.00 in0.0 mm 0.00 in0.0 mm 0.00 in0.0 mm
05:55 AM 27.5°F-2.5°C 26.5°F-3.1°C 96% 14.0 mph NNE22.5 kmh NNE 21.0 mph33.8 kmh 29.79 in1008.8 mb 0.00 in0.0 mm 0.00 in0.0 mm 0.00 in0.0 mm
05:50 AM 27.5°F-2.5°C 26.5°F-3.1°C 96% 14.0 mph NNE22.5 kmh NNE 21.0 mph33.8 kmh 29.80 in1009.1 mb 0.00 in0.0 mm 0.00 in0.0 mm 0.00 in0.0 mm
05:45 AM 27.5°F-2.5°C 26.5°F-3.1°C 96% 17.0 mph NNE27.4 kmh NNE 17.0 mph27.4 kmh 29.79 in1008.8 mb 0.00 in0.0 mm 0.00 in0.0 mm 0.00 in0.0 mm
05:40 AM 27.6°F-2.4°C 26.6°F-3.0°C 96% 17.0 mph NE27.4 kmh NE 22.0 mph35.4 kmh 29.80 in1009.1 mb 0.00 in0.0 mm 0.00 in0.0 mm 0.00 in0.0 mm
05:35 AM 27.6°F-2.4°C 26.6°F-3.0°C 96% 18.0 mph NE29.0 kmh NE 22.0 mph35.4 kmh 29.80 in1009.1 mb 0.00 in0.0 mm 0.00 in0.0 mm 0.00 in0.0 mm
05:30 AM 27.8°F-2.3°C 26.8°F-2.9°C 96% 21.0 mph NNE33.8 kmh NNE 21.0 mph33.8 kmh 29.79 in1008.8 mb 0.00 in0.0 mm 0.00 in0.0 mm 0.00 in0.0 mm
05:25 AM 27.9°F-2.3°C 26.9°F-2.8°C 96% 21.0 mph NNE33.8 kmh NNE 22.0 mph35.4 kmh 29.79 in1008.8 mb 0.00 in0.0 mm 0.00 in0.0 mm 0.00 in0.0 mm
05:20 AM 28.0°F-2.2°C 27.0°F-2.8°C 96% 20.0 mph NE32.2 kmh NE 22.0 mph35.4 kmh 29.80 in1009.1 mb 0.00 in0.0 mm 0.00 in0.0 mm 0.00 in0.0 mm
05:15 AM 28.1°F-2.2°C 27.1°F-2.7°C 96% 16.0 mph NE25.7 kmh NE 20.0 mph32.2 kmh 29.80 in1009.1 mb 0.00 in0.0 mm 0.00 in0.0 mm 0.00 in0.0 mm
05:10 AM 28.3°F-2.1°C 27.3°F-2.6°C 96% 16.0 mph NE25.7 kmh NE 22.0 mph35.4 kmh 29.80 in1009.1 mb 0.00 in0.0 mm 0.00 in0.0 mm 0.00 in0.0 mm
05:05 AM 28.3°F-2.1°C 27.3°F-2.6°C 96% 11.0 mph NE17.7 kmh NE 19.0 mph30.6 kmh 29.81 in1009.5 mb 0.00 in0.0 mm 0.00 in0.0 mm 0.00 in0.0 mm
05:00 AM 28.3°F-2.1°C 27.3°F-2.6°C 96% 15.0 mph NE24.1 kmh NE 15.0 mph24.1 kmh 29.80 in1009.1 mb 0.00 in0.0 mm 0.00 in0.0 mm 0.00 in0.0 mm
04:55 AM 28.4°F-2.0°C 27.4°F-2.6°C 96% 17.0 mph NNE27.4 kmh NNE 23.0 mph37.0 kmh 29.78 in1008.5 mb 0.00 in0.0 mm 0.00 in0.0 mm 0.00 in0.0 mm
04:50 AM 28.5°F-1.9°C 27.5°F-2.5°C 96% 17.0 mph NNE27.4 kmh NNE 20.0 mph32.2 kmh 29.78 in1008.5 mb 0.00 in0.0 mm 0.00 in0.0 mm 0.00 in0.0 mm
04:45 AM 28.5°F-1.9°C 27.5°F-2.5°C 96% 17.0 mph NNE27.4 kmh NNE 18.0 mph29.0 kmh 29.78 in1008.5 mb 0.00 in0.0 mm 0.00 in0.0 mm 0.00 in0.0 mm
04:40 AM 28.6°F-1.9°C 27.6°F-2.4°C 96% 15.0 mph NE24.1 kmh NE 20.0 mph32.2 kmh 29.77 in1008.1 mb 0.00 in0.0 mm 0.00 in0.0 mm 0.00 in0.0 mm
04:35 AM 28.6°F-1.9°C 27.6°F-2.4°C 96% 19.0 mph NNE30.6 kmh NNE 20.0 mph32.2 kmh 29.77 in1008.1 mb 0.00 in0.0 mm 0.00 in0.0 mm 0.00 in0.0 mm
04:30 AM 28.7°F-1.8°C 27.7°F-2.4°C 96% 18.0 mph NE29.0 kmh NE 18.0 mph29.0 kmh 29.77 in1008.1 mb 0.00 in0.0 mm 0.00 in0.0 mm 0.00 in0.0 mm
04:25 AM 28.7°F-1.8°C 27.7°F-2.4°C 96% 18.0 mph NE29.0 kmh NE 19.0 mph30.6 kmh 29.78 in1008.5 mb 0.00 in0.0 mm 0.00 in0.0 mm 0.00 in0.0 mm
04:20 AM 28.8°F-1.8°C 27.8°F-2.3°C 96% 16.0 mph NNE25.7 kmh NNE 19.0 mph30.6 kmh 29.78 in1008.5 mb 0.00 in0.0 mm 0.00 in0.0 mm 0.00 in0.0 mm
04:15 AM 28.9°F-1.7°C 27.9°F-2.3°C 96% 15.0 mph NE24.1 kmh NE 15.0 mph24.1 kmh 29.78 in1008.5 mb 0.00 in0.0 mm 0.00 in0.0 mm 0.00 in0.0 mm
04:10 AM 28.9°F-1.7°C 27.9°F-2.3°C 96% 15.0 mph NNE24.1 kmh NNE 18.0 mph29.0 kmh 29.77 in1008.1 mb 0.00 in0.0 mm 0.00 in0.0 mm 0.00 in0.0 mm
04:05 AM 28.9°F-1.7°C 27.9°F-2.3°C 96% 15.0 mph NNE24.1 kmh NNE 18.0 mph29.0 kmh 29.77 in1008.1 mb 0.00 in0.0 mm 0.00 in0.0 mm 0.00 in0.0 mm
04:00 AM 29.0°F-1.7°C 28.0°F-2.2°C 96% 16.0 mph NE25.7 kmh NE 16.0 mph25.7 kmh 29.77 in1008.1 mb 0.00 in0.0 mm 0.00 in0.0 mm 0.00 in0.0 mm
03:55 AM 29.0°F-1.7°C 28.0°F-2.2°C 96% 13.0 mph NNE20.9 kmh NNE 16.0 mph25.7 kmh 29.77 in1008.1 mb 0.00 in0.0 mm 0.00 in0.0 mm 0.00 in0.0 mm
03:50 AM 29.0°F-1.7°C 28.0°F-2.2°C 96% 11.0 mph NE17.7 kmh NE 13.0 mph20.9 kmh 29.78 in1008.5 mb 0.00 in0.0 mm 0.00 in0.0 mm 0.00 in0.0 mm
03:45 AM 29.0°F-1.7°C 28.0°F-2.2°C 96% 10.0 mph NE16.1 kmh NE 11.0 mph17.7 kmh 29.78 in1008.5 mb 0.00 in0.0 mm 0.00 in0.0 mm 0.00 in0.0 mm
03:40 AM 29.1°F-1.6°C 28.1°F-2.2°C 96% 6.0 mph NE9.7 kmh NE 12.0 mph19.3 kmh 29.78 in1008.5 mb 0.00 in0.0 mm 0.00 in0.0 mm 0.00 in0.0 mm
03:35 AM 29.1°F-1.6°C 28.1°F-2.2°C 96% 10.0 mph NE16.1 kmh NE 11.0 mph17.7 kmh 29.78 in1008.5 mb 0.00 in0.0 mm 0.00 in0.0 mm 0.00 in0.0 mm
03:30 AM 29.2°F-1.6°C 28.2°F-2.1°C 96% 10.0 mph NE16.1 kmh NE 10.0 mph16.1 kmh 29.78 in1008.5 mb 0.00 in0.0 mm 0.00 in0.0 mm 0.00 in0.0 mm
03:25 AM 29.2°F-1.6°C 28.2°F-2.1°C 96% 6.0 mph NE9.7 kmh NE 11.0 mph17.7 kmh 29.79 in1008.8 mb 0.00 in0.0 mm 0.00 in0.0 mm 0.00 in0.0 mm
03:20 AM 29.2°F-1.6°C 28.2°F-2.1°C 96% 9.0 mph NE14.5 kmh NE 10.0 mph16.1 kmh 29.79 in1008.8 mb 0.00 in0.0 mm 0.00 in0.0 mm 0.00 in0.0 mm
03:15 AM 29.3°F-1.5°C 28.3°F-2.1°C 96% 6.0 mph ENE9.7 kmh ENE 6.0 mph9.7 kmh 29.80 in1009.1 mb 0.00 in0.0 mm 0.00 in0.0 mm 0.00 in0.0 mm
03:10 AM 29.4°F-1.4°C 28.4°F-2.0°C 96% 7.0 mph E11.3 kmh E 10.0 mph16.1 kmh 29.80 in1009.1 mb 0.00 in0.0 mm 0.00 in0.0 mm 0.00 in0.0 mm
03:05 AM 29.4°F-1.4°C 28.4°F-2.0°C 96% 6.0 mph ENE9.7 kmh ENE 10.0 mph16.1 kmh 29.79 in1008.8 mb 0.00 in0.0 mm 0.00 in0.0 mm 0.00 in0.0 mm
03:00 AM 29.5°F-1.4°C 28.5°F-1.9°C 96% 9.0 mph ENE14.5 kmh ENE 9.0 mph14.5 kmh 29.79 in1008.8 mb 0.00 in0.0 mm 0.00 in0.0 mm 0.00 in0.0 mm
02:55 AM 29.5°F-1.4°C 28.5°F-1.9°C 96% 4.0 mph NE6.4 kmh NE 11.0 mph17.7 kmh 29.80 in1009.1 mb 0.00 in0.0 mm 0.00 in0.0 mm 0.00 in0.0 mm
02:50 AM 29.5°F-1.4°C 28.5°F-1.9°C 96% 9.0 mph NE14.5 kmh NE 11.0 mph17.7 kmh 29.80 in1009.1 mb 0.00 in0.0 mm 0.00 in0.0 mm 0.00 in0.0 mm
02:45 AM 29.6°F-1.3°C 28.6°F-1.9°C 96% 10.0 mph NE16.1 kmh NE 10.0 mph16.1 kmh 29.81 in1009.5 mb 0.00 in0.0 mm 0.00 in0.0 mm 0.00 in0.0 mm
02:40 AM 29.6°F-1.3°C 28.6°F-1.9°C 96% 10.0 mph NE16.1 kmh NE 10.0 mph16.1 kmh 29.82 in1009.8 mb 0.00 in0.0 mm 0.00 in0.0 mm 0.00 in0.0 mm
02:35 AM 29.7°F-1.3°C 28.7°F-1.8°C 96% 7.0 mph NE11.3 kmh NE 10.0 mph16.1 kmh 29.82 in1009.8 mb 0.00 in0.0 mm 0.00 in0.0 mm 0.00 in0.0 mm
02:30 AM 29.8°F-1.2°C 28.8°F-1.8°C 96% 7.0 mph NE11.3 kmh NE 7.0 mph11.3 kmh 29.82 in1009.8 mb 0.00 in0.0 mm 0.00 in0.0 mm 0.00 in0.0 mm
02:25 AM 29.8°F-1.2°C 28.8°F-1.8°C 96% 5.0 mph NE8.0 kmh NE 9.0 mph14.5 kmh 29.82 in1009.8 mb 0.00 in0.0 mm 0.00 in0.0 mm 0.00 in0.0 mm
02:20 AM 29.8°F-1.2°C 28.8°F-1.8°C 96% 7.0 mph NE11.3 kmh NE 7.0 mph11.3 kmh 29.82 in1009.8 mb 0.00 in0.0 mm 0.00 in0.0 mm 0.00 in0.0 mm
02:15 AM 29.8°F-1.2°C 28.8°F-1.8°C 96% 7.0 mph NE11.3 kmh NE 7.0 mph11.3 kmh 29.82 in1009.8 mb 0.00 in0.0 mm 0.00 in0.0 mm 0.00 in0.0 mm
02:10 AM 29.8°F-1.2°C 28.8°F-1.8°C 96% 4.0 mph ENE6.4 kmh ENE 7.0 mph11.3 kmh 29.82 in1009.8 mb 0.00 in0.0 mm 0.00 in0.0 mm 0.00 in0.0 mm
02:05 AM 29.8°F-1.2°C 28.8°F-1.8°C 96% 4.0 mph ENE6.4 kmh ENE 7.0 mph11.3 kmh 29.82 in1009.8 mb 0.00 in0.0 mm 0.00 in0.0 mm 0.00 in0.0 mm
02:00 AM 29.8°F-1.2°C 28.8°F-1.8°C 96% 4.0 mph NE6.4 kmh NE 5.0 mph8.0 kmh 29.82 in1009.8 mb 0.00 in0.0 mm 0.00 in0.0 mm 0.00 in0.0 mm
01:55 AM 29.8°F-1.2°C 28.8°F-1.8°C 96% 5.0 mph NE8.0 kmh NE 8.0 mph12.9 kmh 29.80 in1009.1 mb 0.00 in0.0 mm 0.00 in0.0 mm 0.00 in0.0 mm
01:50 AM 29.9°F-1.2°C 28.9°F-1.7°C 96% 6.0 mph NE9.7 kmh NE 8.0 mph12.9 kmh 29.80 in1009.1 mb 0.00 in0.0 mm 0.00 in0.0 mm 0.00 in0.0 mm
01:45 AM 29.9°F-1.2°C 28.9°F-1.7°C 96% 6.0 mph NE9.7 kmh NE 6.0 mph9.7 kmh 29.81 in1009.5 mb 0.00 in0.0 mm 0.00 in0.0 mm 0.00 in0.0 mm
01:40 AM 30.0°F-1.1°C 29.0°F-1.7°C 96% 6.0 mph NE9.7 kmh NE 9.0 mph14.5 kmh 29.82 in1009.8 mb 0.00 in0.0 mm 0.00 in0.0 mm 0.00 in0.0 mm
01:35 AM 30.0°F-1.1°C 29.0°F-1.7°C 96% 5.0 mph NNE8.0 kmh NNE 9.0 mph14.5 kmh 29.82 in1009.8 mb 0.00 in0.0 mm 0.00 in0.0 mm 0.00 in0.0 mm
01:30 AM 29.9°F-1.2°C 28.9°F-1.7°C 96% 5.0 mph ENE8.0 kmh ENE 5.0 mph8.0 kmh 29.82 in1009.8 mb 0.00 in0.0 mm 0.00 in0.0 mm 0.00 in0.0 mm
01:25 AM 30.0°F-1.1°C 29.0°F-1.7°C 96% 4.0 mph ESE6.4 kmh ESE 5.0 mph8.0 kmh 29.83 in1010.2 mb 0.00 in0.0 mm 0.00 in0.0 mm 0.00 in0.0 mm
01:20 AM 30.1°F-1.1°C 29.1°F-1.6°C 96% 4.0 mph ESE6.4 kmh ESE 5.0 mph8.0 kmh 29.84 in1010.5 mb 0.00 in0.0 mm 0.00 in0.0 mm 0.00 in0.0 mm
01:15 AM 30.1°F-1.1°C 29.1°F-1.6°C 96% 3.0 mph ESE4.8 kmh ESE 3.0 mph4.8 kmh 29.85 in1010.8 mb 0.00 in0.0 mm 0.00 in0.0 mm 0.00 in0.0 mm
01:10 AM 30.1°F-1.1°C 29.1°F-1.6°C 96% 4.0 mph ESE6.4 kmh ESE 6.0 mph9.7 kmh 29.85 in1010.8 mb 0.00 in0.0 mm 0.00 in0.0 mm 0.00 in0.0 mm
01:05 AM 30.1°F-1.1°C 29.1°F-1.6°C 96% 3.0 mph ESE4.8 kmh ESE 6.0 mph9.7 kmh 29.84 in1010.5 mb 0.00 in0.0 mm 0.00 in0.0 mm 0.00 in0.0 mm
01:00 AM 30.1°F-1.1°C 29.1°F-1.6°C 96% 5.0 mph E8.0 kmh E 6.0 mph9.7 kmh 29.84 in1010.5 mb 0.00 in0.0 mm 0.00 in0.0 mm 0.00 in0.0 mm
12:55 AM 30.1°F-1.1°C 29.1°F-1.6°C 96% 6.0 mph ENE9.7 kmh ENE 10.0 mph16.1 kmh 29.83 in1010.2 mb 0.00 in0.0 mm 0.00 in0.0 mm 0.00 in0.0 mm
12:50 AM 30.1°F-1.1°C 29.1°F-1.6°C 96% 4.0 mph E6.4 kmh E 9.0 mph14.5 kmh 29.84 in1010.5 mb 0.00 in0.0 mm 0.00 in0.0 mm 0.00 in0.0 mm
12:45 AM 30.2°F-1.0°C 29.2°F-1.6°C 96% 6.0 mph NE9.7 kmh NE 8.0 mph12.9 kmh 29.84 in1010.5 mb 0.00 in0.0 mm 0.00 in0.0 mm 0.00 in0.0 mm
12:40 AM 30.1°F-1.1°C 29.1°F-1.6°C 96% 2.0 mph E3.2 kmh E 11.0 mph17.7 kmh 29.85 in1010.8 mb 0.00 in0.0 mm 0.00 in0.0 mm 0.00 in0.0 mm
12:35 AM 30.1°F-1.1°C 29.1°F-1.6°C 96% 7.0 mph ENE11.3 kmh ENE 11.0 mph17.7 kmh 29.84 in1010.5 mb 0.00 in0.0 mm 0.00 in0.0 mm 0.00 in0.0 mm
12:30 AM 30.1°F-1.1°C 29.1°F-1.6°C 96% 5.0 mph ENE8.0 kmh ENE 5.0 mph8.0 kmh 29.85 in1010.8 mb 0.00 in0.0 mm 0.00 in0.0 mm 0.00 in0.0 mm
12:25 AM 30.2°F-1.0°C 29.2°F-1.6°C 96% 9.0 mph E14.5 kmh E 12.0 mph19.3 kmh 29.85 in1010.8 mb 0.00 in0.0 mm 0.00 in0.0 mm 0.00 in0.0 mm
12:20 AM 30.2°F-1.0°C 29.2°F-1.6°C 96% 6.0 mph E9.7 kmh E 10.0 mph16.1 kmh 29.86 in1011.2 mb 0.00 in0.0 mm 0.00 in0.0 mm 0.00 in0.0 mm
12:15 AM 30.2°F-1.0°C 28.9°F-1.7°C 95% 7.0 mph N11.3 kmh N 7.0 mph11.3 kmh 29.85 in1010.8 mb 0.00 in0.0 mm 0.00 in0.0 mm 0.00 in0.0 mm
12:10 AM 30.3°F-0.9°C 29.3°F-1.5°C 96% 13.0 mph ENE20.9 kmh ENE 14.0 mph22.5 kmh 29.84 in1010.5 mb 0.00 in0.0 mm 0.00 in0.0 mm 0.00 in0.0 mm
12:05 AM 30.4°F-0.9°C 29.4°F-1.4°C 96% 12.0 mph E19.3 kmh E 14.0 mph22.5 kmh 29.83 in1010.2 mb 0.00 in0.0 mm 0.00 in0.0 mm 0.00 in0.0 mm
12:00 AM 30.4°F-0.9°C 29.4°F-1.4°C 96% 10.0 mph E16.1 kmh E 15.0 mph24.1 kmh 29.83 in1010.2 mb 0.00 in0.0 mm 0.00 in0.0 mm 0.00 in0.0 mm